sensor_id;sensor_type;location;lat;lon;timestamp;pressure;altitude;pressure_sealevel;temperature;humidity
6565;BME280;3316;44.118;27.258;2023-06-24T00:00:44;100958.16;;;22.49;100.00
6565;BME280;3316;44.118;27.258;2023-06-24T00:03:10;100947.59;;;22.46;100.00
6565;BME280;3316;44.118;27.258;2023-06-24T00:05:37;100959.09;;;22.48;100.00
6565;BME280;3316;44.118;27.258;2023-06-24T00:08:04;100972.19;;;22.54;100.00
6565;BME280;3316;44.118;27.258;2023-06-24T00:10:32;100958.88;;;22.52;100.00
6565;BME280;3316;44.118;27.258;2023-06-24T00:12:58;100948.91;;;22.54;100.00
6565;BME280;3316;44.118;27.258;2023-06-24T00:15:26;100916.53;;;22.42;100.00
6565;BME280;3316;44.118;27.258;2023-06-24T00:17:52;100942.53;;;22.57;100.00
6565;BME280;3316;44.118;27.258;2023-06-24T00:20:17;100920.88;;;22.44;100.00
6565;BME280;3316;44.118;27.258;2023-06-24T00:22:45;100918.44;;;22.40;100.00
6565;BME280;3316;44.118;27.258;2023-06-24T00:25:14;100932.47;;;22.45;100.00
6565;BME280;3316;44.118;27.258;2023-06-24T00:27:41;100899.38;;;22.29;100.00
6565;BME280;3316;44.118;27.258;2023-06-24T00:30:07;100932.97;;;22.51;100.00
6565;BME280;3316;44.118;27.258;2023-06-24T00:32:33;100931.81;;;22.57;100.00
6565;BME280;3316;44.118;27.258;2023-06-24T00:34:58;100914.63;;;22.44;100.00
6565;BME280;3316;44.118;27.258;2023-06-24T00:37:25;100934.38;;;22.43;100.00
6565;BME280;3316;44.118;27.258;2023-06-24T00:39:51;100906.81;;;22.39;100.00
6565;BME280;3316;44.118;27.258;2023-06-24T00:42:17;100915.00;;;22.53;100.00
6565;BME280;3316;44.118;27.258;2023-06-24T00:44:42;100903.56;;;22.50;100.00
6565;BME280;3316;44.118;27.258;2023-06-24T00:47:08;100891.09;;;22.33;100.00
6565;BME280;3316;44.118;27.258;2023-06-24T00:49:34;100896.47;;;22.33;100.00
6565;BME280;3316;44.118;27.258;2023-06-24T00:51:59;100895.75;;;22.30;100.00
6565;BME280;3316;44.118;27.258;2023-06-24T00:54:26;100906.13;;;22.36;100.00
6565;BME280;3316;44.118;27.258;2023-06-24T00:56:57;100870.75;;;22.13;100.00
6565;BME280;3316;44.118;27.258;2023-06-24T00:59:26;100896.78;;;22.27;100.00
6565;BME280;3316;44.118;27.258;2023-06-24T01:01:55;100895.38;;;22.20;100.00
6565;BME280;3316;44.118;27.258;2023-06-24T01:04:20;100896.16;;;22.22;100.00
6565;BME280;3316;44.118;27.258;2023-06-24T01:06:46;100902.94;;;22.29;100.00
6565;BME280;3316;44.118;27.258;2023-06-24T01:09:12;100901.19;;;22.28;100.00
6565;BME280;3316;44.118;27.258;2023-06-24T01:11:38;100906.47;;;22.30;100.00
6565;BME280;3316;44.118;27.258;2023-06-24T01:14:04;100889.31;;;22.17;100.00
6565;BME280;3316;44.118;27.258;2023-06-24T01:25:14;100912.28;;;22.05;100.00
6565;BME280;3316;44.118;27.258;2023-06-24T01:33:16;100895.19;;;21.90;100.00
6565;BME280;3316;44.118;27.258;2023-06-24T01:35:47;100889.50;;;21.96;100.00
6565;BME280;3316;44.118;27.258;2023-06-24T01:38:31;100909.50;;;22.06;100.00
6565;BME280;3316;44.118;27.258;2023-06-24T01:40:59;100902.44;;;22.05;100.00
6565;BME280;3316;44.118;27.258;2023-06-24T01:43:27;100922.41;;;22.00;100.00
6565;BME280;3316;44.118;27.258;2023-06-24T01:45:54;100914.59;;;21.95;100.00
6565;BME280;3316;44.118;27.258;2023-06-24T01:48:28;100928.44;;;22.03;100.00
6565;BME280;3316;44.118;27.258;2023-06-24T01:51:00;100927.16;;;22.10;100.00
6565;BME280;3316;44.118;27.258;2023-06-24T01:53:32;100908.72;;;22.04;100.00
6565;BME280;3316;44.118;27.258;2023-06-24T01:56:00;100917.13;;;22.14;100.00
6565;BME280;3316;44.118;27.258;2023-06-24T01:58:28;100926.06;;;22.14;100.00
6565;BME280;3316;44.118;27.258;2023-06-24T02:00:55;100941.72;;;22.22;100.00
6565;BME280;3316;44.118;27.258;2023-06-24T02:03:23;100944.25;;;22.25;100.00
6565;BME280;3316;44.118;27.258;2023-06-24T02:05:50;100936.91;;;22.29;100.00
6565;BME280;3316;44.118;27.258;2023-06-24T02:08:18;100949.91;;;22.36;100.00
6565;BME280;3316;44.118;27.258;2023-06-24T02:10:47;100958.19;;;22.32;100.00
6565;BME280;3316;44.118;27.258;2023-06-24T02:13:15;100959.94;;;22.33;100.00
6565;BME280;3316;44.118;27.258;2023-06-24T02:15:41;100948.56;;;22.28;100.00
6565;BME280;3316;44.118;27.258;2023-06-24T02:18:08;100967.88;;;22.34;100.00
6565;BME280;3316;44.118;27.258;2023-06-24T02:20:35;100926.84;;;22.17;100.00
6565;BME280;3316;44.118;27.258;2023-06-24T02:23:06;100967.81;;;22.36;100.00
6565;BME280;3316;44.118;27.258;2023-06-24T02:25:33;100944.69;;;22.18;100.00
6565;BME280;3316;44.118;27.258;2023-06-24T02:27:59;100974.91;;;22.37;100.00
6565;BME280;3316;44.118;27.258;2023-06-24T02:30:25;100976.41;;;22.42;100.00
6565;BME280;3316;44.118;27.258;2023-06-24T02:32:51;100972.38;;;22.51;100.00
6565;BME280;3316;44.118;27.258;2023-06-24T02:35:17;100987.81;;;22.46;100.00
6565;BME280;3316;44.118;27.258;2023-06-24T02:37:42;100978.84;;;22.47;100.00
6565;BME280;3316;44.118;27.258;2023-06-24T02:40:08;100991.59;;;22.42;100.00
6565;BME280;3316;44.118;27.258;2023-06-24T02:42:35;100991.84;;;22.37;100.00
6565;BME280;3316;44.118;27.258;2023-06-24T02:45:01;100976.09;;;22.14;100.00
6565;BME280;3316;44.118;27.258;2023-06-24T02:47:27;101006.53;;;22.30;100.00
6565;BME280;3316;44.118;27.258;2023-06-24T02:49:54;101005.03;;;22.25;100.00
6565;BME280;3316;44.118;27.258;2023-06-24T02:52:23;101010.19;;;22.29;100.00
6565;BME280;3316;44.118;27.258;2023-06-24T02:54:49;101016.94;;;22.36;100.00
6565;BME280;3316;44.118;27.258;2023-06-24T02:57:14;101011.47;;;22.38;100.00
6565;BME280;3316;44.118;27.258;2023-06-24T02:59:41;101023.06;;;22.55;100.00
6565;BME280;3316;44.118;27.258;2023-06-24T03:02:06;101023.88;;;22.57;100.00
6565;BME280;3316;44.118;27.258;2023-06-24T03:04:32;100999.31;;;22.65;100.00
6565;BME280;3316;44.118;27.258;2023-06-24T03:06:59;101010.88;;;23.31;98.00
6565;BME280;3316;44.118;27.258;2023-06-24T03:09:26;101032.47;;;23.74;91.69
6565;BME280;3316;44.118;27.258;2023-06-24T03:11:52;101024.59;;;23.71;96.28
6565;BME280;3316;44.118;27.258;2023-06-24T03:14:18;101028.81;;;23.91;95.90
6565;BME280;3316;44.118;27.258;2023-06-24T03:16:44;101025.41;;;24.03;93.25
6565;BME280;3316;44.118;27.258;2023-06-24T03:19:09;101019.59;;;24.11;92.93
6565;BME280;3316;44.118;27.258;2023-06-24T03:21:35;101037.59;;;24.38;92.19
6565;BME280;3316;44.118;27.258;2023-06-24T03:24:00;101030.63;;;24.64;90.04
6565;BME280;3316;44.118;27.258;2023-06-24T03:26:35;101041.97;;;24.69;89.21
6565;BME280;3316;44.118;27.258;2023-06-24T03:29:01;101049.88;;;24.72;90.86
6565;BME280;3316;44.118;27.258;2023-06-24T03:31:27;101032.84;;;24.57;91.73
6565;BME280;3316;44.118;27.258;2023-06-24T03:33:52;101045.75;;;24.37;92.38
6565;BME280;3316;44.118;27.258;2023-06-24T03:36:18;101047.91;;;24.46;93.39
6565;BME280;3316;44.118;27.258;2023-06-24T03:38:43;101050.91;;;24.55;91.84
6565;BME280;3316;44.118;27.258;2023-06-24T03:41:09;101043.59;;;24.57;92.04
6565;BME280;3316;44.118;27.258;2023-06-24T03:43:34;101042.16;;;24.66;91.97
6565;BME280;3316;44.118;27.258;2023-06-24T03:45:59;101053.06;;;24.79;90.46
6565;BME280;3316;44.118;27.258;2023-06-24T03:48:25;101049.94;;;24.56;90.95
6565;BME280;3316;44.118;27.258;2023-06-24T03:50:51;101056.06;;;24.58;91.50
6565;BME280;3316;44.118;27.258;2023-06-24T03:53:16;101059.16;;;24.66;91.40
6565;BME280;3316;44.118;27.258;2023-06-24T03:55:42;101054.47;;;24.70;91.03
6565;BME280;3316;44.118;27.258;2023-06-24T03:58:07;101071.03;;;24.92;90.35
6565;BME280;3316;44.118;27.258;2023-06-24T04:00:33;101075.19;;;24.98;90.52
6565;BME280;3316;44.118;27.258;2023-06-24T04:02:59;101082.94;;;25.30;87.84
6565;BME280;3316;44.118;27.258;2023-06-24T04:05:26;101076.41;;;25.48;87.82
6565;BME280;3316;44.118;27.258;2023-06-24T04:07:51;101080.69;;;25.65;86.70
6565;BME280;3316;44.118;27.258;2023-06-24T04:10:18;101091.31;;;25.81;84.60
6565;BME280;3316;44.118;27.258;2023-06-24T04:12:44;101082.88;;;25.99;82.35
6565;BME280;3316;44.118;27.258;2023-06-24T04:15:10;101087.09;;;26.17;82.22
6565;BME280;3316;44.118;27.258;2023-06-24T04:17:35;101081.97;;;26.52;80.64
6565;BME280;3316;44.118;27.258;2023-06-24T04:20:01;101085.91;;;26.86;78.54
6565;BME280;3316;44.118;27.258;2023-06-24T04:22:29;101080.81;;;27.19;75.27
6565;BME280;3316;44.118;27.258;2023-06-24T04:24:55;101080.88;;;27.30;74.39
6565;BME280;3316;44.118;27.258;2023-06-24T04:27:20;101083.78;;;27.27;76.40
6565;BME280;3316;44.118;27.258;2023-06-24T04:29:46;101079.25;;;27.27;74.20
6565;BME280;3316;44.118;27.258;2023-06-24T04:32:11;101092.56;;;27.43;75.20
6565;BME280;3316;44.118;27.258;2023-06-24T04:34:37;101089.94;;;27.29;73.81
6565;BME280;3316;44.118;27.258;2023-06-24T04:37:02;101084.78;;;27.26;75.14
6565;BME280;3316;44.118;27.258;2023-06-24T04:39:28;101087.53;;;27.01;74.54
6565;BME280;3316;44.118;27.258;2023-06-24T04:41:53;101079.75;;;26.84;75.71
6565;BME280;3316;44.118;27.258;2023-06-24T04:44:19;101070.63;;;26.60;77.28
6565;BME280;3316;44.118;27.258;2023-06-24T04:46:45;101079.47;;;26.49;79.17
6565;BME280;3316;44.118;27.258;2023-06-24T04:49:11;101080.97;;;26.53;80.01
6565;BME280;3316;44.118;27.258;2023-06-24T04:51:36;101085.63;;;26.51;81.57
6565;BME280;3316;44.118;27.258;2023-06-24T04:54:02;101077.97;;;26.58;82.51
6565;BME280;3316;44.118;27.258;2023-06-24T04:56:29;101080.56;;;26.47;83.89
6565;BME280;3316;44.118;27.258;2023-06-24T04:58:54;101069.34;;;26.53;85.25
6565;BME280;3316;44.118;27.258;2023-06-24T05:01:20;101061.91;;;26.56;85.22
6565;BME280;3316;44.118;27.258;2023-06-24T05:03:47;101062.16;;;26.26;87.00
6565;BME280;3316;44.118;27.258;2023-06-24T05:06:12;101063.13;;;26.25;86.21
6565;BME280;3316;44.118;27.258;2023-06-24T05:08:38;101067.44;;;26.28;87.11
6565;BME280;3316;44.118;27.258;2023-06-24T05:11:03;101025.28;;;26.27;84.76
6565;BME280;3316;44.118;27.258;2023-06-24T05:13:29;101066.69;;;26.78;83.76
6565;BME280;3316;44.118;27.258;2023-06-24T05:15:54;101060.50;;;27.01;81.77
6565;BME280;3316;44.118;27.258;2023-06-24T05:18:19;101054.31;;;27.24;80.36
6565;BME280;3316;44.118;27.258;2023-06-24T05:20:45;101060.13;;;27.43;79.58
6565;BME280;3316;44.118;27.258;2023-06-24T05:23:10;101025.53;;;27.48;78.33
6565;BME280;3316;44.118;27.258;2023-06-24T05:25:36;101057.91;;;27.61;79.36
6565;BME280;3316;44.118;27.258;2023-06-24T05:28:02;101047.84;;;27.63;78.29
6565;BME280;3316;44.118;27.258;2023-06-24T05:30:27;101065.53;;;27.79;77.29
6565;BME280;3316;44.118;27.258;2023-06-24T05:32:52;101053.66;;;27.93;75.96
6565;BME280;3316;44.118;27.258;2023-06-24T05:35:18;101049.81;;;28.08;75.39
6565;BME280;3316;44.118;27.258;2023-06-24T05:37:43;101041.78;;;28.30;72.99
6565;BME280;3316;44.118;27.258;2023-06-24T05:40:09;101046.38;;;28.52;71.46
6565;BME280;3316;44.118;27.258;2023-06-24T05:42:35;101048.88;;;28.55;71.42
6565;BME280;3316;44.118;27.258;2023-06-24T05:45:00;101043.28;;;28.45;70.56
6565;BME280;3316;44.118;27.258;2023-06-24T05:47:26;101026.03;;;28.24;72.63
6565;BME280;3316;44.118;27.258;2023-06-24T05:49:51;101030.22;;;28.28;72.05
6565;BME280;3316;44.118;27.258;2023-06-24T05:52:16;101038.22;;;28.41;72.41
6565;BME280;3316;44.118;27.258;2023-06-24T05:54:42;101046.19;;;28.66;72.66
6565;BME280;3316;44.118;27.258;2023-06-24T05:57:07;101039.25;;;28.51;72.40
6565;BME280;3316;44.118;27.258;2023-06-24T05:59:34;101045.34;;;28.76;71.97
6565;BME280;3316;44.118;27.258;2023-06-24T06:01:59;101043.50;;;28.99;71.31
6565;BME280;3316;44.118;27.258;2023-06-24T06:04:27;101050.66;;;29.44;69.04
6565;BME280;3316;44.118;27.258;2023-06-24T06:06:52;101054.47;;;29.53;69.15
6565;BME280;3316;44.118;27.258;2023-06-24T06:09:18;101037.84;;;29.89;67.78
6565;BME280;3316;44.118;27.258;2023-06-24T06:11:43;101045.09;;;30.20;66.25
6565;BME280;3316;44.118;27.258;2023-06-24T06:14:09;101051.13;;;30.55;65.31
6565;BME280;3316;44.118;27.258;2023-06-24T06:16:34;101051.88;;;31.08;65.12
6565;BME280;3316;44.118;27.258;2023-06-24T06:19:00;101055.50;;;31.28;65.33
6565;BME280;3316;44.118;27.258;2023-06-24T06:21:25;101053.38;;;31.71;66.94
6565;BME280;3316;44.118;27.258;2023-06-24T06:23:50;101055.00;;;32.02;65.88
6565;BME280;3316;44.118;27.258;2023-06-24T06:26:16;101054.44;;;32.18;65.58
6565;BME280;3316;44.118;27.258;2023-06-24T06:28:41;101064.88;;;32.41;65.13
6565;BME280;3316;44.118;27.258;2023-06-24T06:31:07;101070.03;;;32.54;62.15
6565;BME280;3316;44.118;27.258;2023-06-24T06:33:32;101065.16;;;32.58;59.96
6565;BME280;3316;44.118;27.258;2023-06-24T06:35:58;101066.59;;;32.62;61.35
6565;BME280;3316;44.118;27.258;2023-06-24T06:38:24;101079.75;;;32.76;59.13
6565;BME280;3316;44.118;27.258;2023-06-24T06:40:50;101071.31;;;32.79;60.75
6565;BME280;3316;44.118;27.258;2023-06-24T06:43:15;101083.84;;;33.08;61.03
6565;BME280;3316;44.118;27.258;2023-06-24T06:45:40;101072.44;;;33.22;56.21
6565;BME280;3316;44.118;27.258;2023-06-24T06:48:06;101070.53;;;33.33;56.63
6565;BME280;3316;44.118;27.258;2023-06-24T06:50:33;101082.31;;;33.33;55.70
6565;BME280;3316;44.118;27.258;2023-06-24T06:52:59;101078.56;;;33.34;56.18
6565;BME280;3316;44.118;27.258;2023-06-24T06:55:24;101065.53;;;33.28;55.93
6565;BME280;3316;44.118;27.258;2023-06-24T06:57:50;101076.09;;;33.50;55.35
6565;BME280;3316;44.118;27.258;2023-06-24T07:00:16;101073.94;;;33.71;53.99
6565;BME280;3316;44.118;27.258;2023-06-24T07:02:41;101075.50;;;34.01;52.30
6565;BME280;3316;44.118;27.258;2023-06-24T07:05:07;101082.13;;;34.16;50.81
6565;BME280;3316;44.118;27.258;2023-06-24T07:07:36;101070.38;;;34.41;50.68
6565;BME280;3316;44.118;27.258;2023-06-24T07:10:01;101090.13;;;34.70;49.93
6565;BME280;3316;44.118;27.258;2023-06-24T07:12:27;101087.78;;;34.75;49.50
6565;BME280;3316;44.118;27.258;2023-06-24T07:14:52;101096.22;;;34.90;49.99
6565;BME280;3316;44.118;27.258;2023-06-24T07:17:17;101090.56;;;34.83;50.95
6565;BME280;3316;44.118;27.258;2023-06-24T07:19:43;101094.38;;;34.30;53.54
6565;BME280;3316;44.118;27.258;2023-06-24T07:22:08;101087.50;;;34.08;54.65
6565;BME280;3316;44.118;27.258;2023-06-24T07:24:34;101088.03;;;34.29;53.70
6565;BME280;3316;44.118;27.258;2023-06-24T07:26:59;101093.00;;;34.69;54.42
6565;BME280;3316;44.118;27.258;2023-06-24T07:29:24;101087.03;;;34.91;52.67
6565;BME280;3316;44.118;27.258;2023-06-24T07:31:50;101088.38;;;34.87;52.54
6565;BME280;3316;44.118;27.258;2023-06-24T07:34:16;101097.63;;;34.94;52.24
6565;BME280;3316;44.118;27.258;2023-06-24T07:36:41;101057.06;;;34.38;52.86
6565;BME280;3316;44.118;27.258;2023-06-24T07:39:06;101095.59;;;34.70;52.96
6565;BME280;3316;44.118;27.258;2023-06-24T07:41:32;101081.91;;;34.70;51.59
6565;BME280;3316;44.118;27.258;2023-06-24T07:43:57;101094.69;;;34.27;51.47
6565;BME280;3316;44.118;27.258;2023-06-24T07:46:23;101090.00;;;34.19;50.88
6565;BME280;3316;44.118;27.258;2023-06-24T07:48:48;101089.44;;;34.33;50.81
6565;BME280;3316;44.118;27.258;2023-06-24T07:51:14;101086.97;;;34.22;50.83
6565;BME280;3316;44.118;27.258;2023-06-24T07:53:39;101079.97;;;34.45;50.53
6565;BME280;3316;44.118;27.258;2023-06-24T07:56:05;101079.69;;;34.91;49.39
6565;BME280;3316;44.118;27.258;2023-06-24T07:58:30;101039.44;;;34.84;49.72
6565;BME280;3316;44.118;27.258;2023-06-24T08:00:56;101077.38;;;34.79;48.28
6565;BME280;3316;44.118;27.258;2023-06-24T08:03:22;101072.41;;;34.57;48.95
6565;BME280;3316;44.118;27.258;2023-06-24T08:05:48;101076.34;;;34.54;49.19
6565;BME280;3316;44.118;27.258;2023-06-24T08:08:15;101078.75;;;34.57;48.84
6565;BME280;3316;44.118;27.258;2023-06-24T08:10:40;101078.78;;;34.83;49.37
6565;BME280;3316;44.118;27.258;2023-06-24T08:13:05;101082.03;;;34.61;48.24
6565;BME280;3316;44.118;27.258;2023-06-24T08:15:31;101087.28;;;34.80;47.30
6565;BME280;3316;44.118;27.258;2023-06-24T08:17:56;101084.22;;;34.83;47.49
6565;BME280;3316;44.118;27.258;2023-06-24T08:20:23;101078.78;;;35.09;46.16
6565;BME280;3316;44.118;27.258;2023-06-24T08:22:49;101066.72;;;35.27;46.28
6565;BME280;3316;44.118;27.258;2023-06-24T08:25:15;101064.06;;;35.10;44.55
6565;BME280;3316;44.118;27.258;2023-06-24T08:27:40;101069.41;;;34.93;44.65
6565;BME280;3316;44.118;27.258;2023-06-24T08:30:06;101060.84;;;34.88;44.65
6565;BME280;3316;44.118;27.258;2023-06-24T08:32:32;101061.50;;;34.82;43.96
6565;BME280;3316;44.118;27.258;2023-06-24T08:34:58;101064.81;;;34.68;44.27
6565;BME280;3316;44.118;27.258;2023-06-24T08:37:23;101058.28;;;34.87;44.22
6565;BME280;3316;44.118;27.258;2023-06-24T08:39:49;101063.38;;;35.08;43.61
6565;BME280;3316;44.118;27.258;2023-06-24T08:42:14;101051.59;;;35.07;44.10
6565;BME280;3316;44.118;27.258;2023-06-24T08:44:40;101048.78;;;35.33;43.88
6565;BME280;3316;44.118;27.258;2023-06-24T08:47:06;101037.06;;;35.48;43.66
6565;BME280;3316;44.118;27.258;2023-06-24T08:49:34;101052.78;;;35.38;44.44
6565;BME280;3316;44.118;27.258;2023-06-24T08:52:07;101043.28;;;35.66;44.67
6565;BME280;3316;44.118;27.258;2023-06-24T08:54:36;101036.94;;;35.66;43.09
6565;BME280;3316;44.118;27.258;2023-06-24T08:57:03;100994.50;;;35.12;44.00
6565;BME280;3316;44.118;27.258;2023-06-24T08:59:31;101028.97;;;35.39;46.15
6565;BME280;3316;44.118;27.258;2023-06-24T09:01:57;101027.25;;;35.30;45.69
6565;BME280;3316;44.118;27.258;2023-06-24T09:04:22;101026.09;;;35.40;46.22
6565;BME280;3316;44.118;27.258;2023-06-24T09:06:48;101030.28;;;35.60;45.69
6565;BME280;3316;44.118;27.258;2023-06-24T09:09:23;101022.97;;;35.77;44.70
6565;BME280;3316;44.118;27.258;2023-06-24T09:11:59;101024.06;;;35.50;45.35
6565;BME280;3316;44.118;27.258;2023-06-24T09:14:26;101030.09;;;35.54;46.60
6565;BME280;3316;44.118;27.258;2023-06-24T09:16:57;101032.50;;;35.23;45.52
6565;BME280;3316;44.118;27.258;2023-06-24T09:19:27;101024.44;;;35.55;46.89
6565;BME280;3316;44.118;27.258;2023-06-24T09:22:02;101023.19;;;36.00;43.84
6565;BME280;3316;44.118;27.258;2023-06-24T09:24:32;101021.97;;;36.26;43.72
6565;BME280;3316;44.118;27.258;2023-06-24T09:26:57;101003.50;;;36.04;44.06
6565;BME280;3316;44.118;27.258;2023-06-24T09:29:27;101024.72;;;36.26;43.46
6565;BME280;3316;44.118;27.258;2023-06-24T09:31:53;101024.22;;;36.31;43.27
6565;BME280;3316;44.118;27.258;2023-06-24T09:34:19;101027.84;;;36.39;43.44
6565;BME280;3316;44.118;27.258;2023-06-24T09:36:45;101020.06;;;35.87;41.83
6565;BME280;3316;44.118;27.258;2023-06-24T09:39:16;101017.03;;;36.14;42.39
6565;BME280;3316;44.118;27.258;2023-06-24T09:41:42;101029.56;;;36.40;40.85
6565;BME280;3316;44.118;27.258;2023-06-24T09:44:13;101027.50;;;36.42;41.43
6565;BME280;3316;44.118;27.258;2023-06-24T09:46:38;101022.00;;;36.58;40.62
6565;BME280;3316;44.118;27.258;2023-06-24T09:49:06;101020.63;;;36.46;39.82
6565;BME280;3316;44.118;27.258;2023-06-24T09:51:37;101038.06;;;36.70;39.76
6565;BME280;3316;44.118;27.258;2023-06-24T09:54:05;101036.69;;;36.98;39.40
6565;BME280;3316;44.118;27.258;2023-06-24T09:56:42;101032.97;;;36.58;39.19
6565;BME280;3316;44.118;27.258;2023-06-24T09:59:09;101030.72;;;36.54;38.70
6565;BME280;3316;44.118;27.258;2023-06-24T10:01:38;101036.56;;;36.51;37.19
6565;BME280;3316;44.118;27.258;2023-06-24T10:04:05;101036.41;;;36.44;38.01
6565;BME280;3316;44.118;27.258;2023-06-24T10:06:33;101038.63;;;36.57;35.94
6565;BME280;3316;44.118;27.258;2023-06-24T10:08:59;101041.66;;;35.98;35.54
6565;BME280;3316;44.118;27.258;2023-06-24T10:11:24;101037.06;;;36.06;33.89
6565;BME280;3316;44.118;27.258;2023-06-24T10:13:51;101033.47;;;36.54;33.72
6565;BME280;3316;44.118;27.258;2023-06-24T10:16:16;101036.38;;;36.77;34.95
6565;BME280;3316;44.118;27.258;2023-06-24T10:18:44;101030.03;;;36.60;35.73
6565;BME280;3316;44.118;27.258;2023-06-24T10:21:10;101026.63;;;36.50;36.12
6565;BME280;3316;44.118;27.258;2023-06-24T10:23:42;101023.34;;;36.79;35.43
6565;BME280;3316;44.118;27.258;2023-06-24T10:26:28;101021.88;;;37.07;34.68
6565;BME280;3316;44.118;27.258;2023-06-24T10:34:27;100996.31;;;36.11;35.33
6565;BME280;3316;44.118;27.258;2023-06-24T10:42:39;100988.91;;;36.68;35.43
6565;BME280;3316;44.118;27.258;2023-06-24T10:50:08;100982.91;;;36.64;34.31
6565;BME280;3316;44.118;27.258;2023-06-24T10:52:38;100988.09;;;36.19;32.29
6565;BME280;3316;44.118;27.258;2023-06-24T10:55:04;100988.25;;;36.02;31.23
6565;BME280;3316;44.118;27.258;2023-06-24T10:57:30;100975.19;;;35.79;31.99
6565;BME280;3316;44.118;27.258;2023-06-24T10:59:56;100986.53;;;36.09;32.22
6565;BME280;3316;44.118;27.258;2023-06-24T11:02:24;100972.50;;;36.12;30.96
6565;BME280;3316;44.118;27.258;2023-06-24T11:04:57;100976.09;;;35.96;31.39
6565;BME280;3316;44.118;27.258;2023-06-24T11:07:24;100973.50;;;35.78;31.67
6565;BME280;3316;44.118;27.258;2023-06-24T11:09:52;100972.09;;;35.58;31.60
6565;BME280;3316;44.118;27.258;2023-06-24T11:12:18;100976.84;;;35.48;31.81
6565;BME280;3316;44.118;27.258;2023-06-24T11:14:44;100970.38;;;35.49;32.61
6565;BME280;3316;44.118;27.258;2023-06-24T11:17:10;100971.78;;;35.61;31.89
6565;BME280;3316;44.118;27.258;2023-06-24T11:19:35;100963.53;;;35.53;31.74
6565;BME280;3316;44.118;27.258;2023-06-24T11:22:08;100963.56;;;35.69;31.99
6565;BME280;3316;44.118;27.258;2023-06-24T11:24:34;100951.09;;;35.83;31.41
6565;BME280;3316;44.118;27.258;2023-06-24T11:27:01;100961.03;;;36.16;32.06
6565;BME280;3316;44.118;27.258;2023-06-24T11:29:31;100955.00;;;36.29;31.08
6565;BME280;3316;44.118;27.258;2023-06-24T11:31:58;100943.34;;;36.35;30.91
6565;BME280;3316;44.118;27.258;2023-06-24T11:34:23;100959.13;;;36.09;31.25
6565;BME280;3316;44.118;27.258;2023-06-24T11:36:49;100951.47;;;35.96;30.68
6565;BME280;3316;44.118;27.258;2023-06-24T11:39:24;100958.81;;;36.04;30.83
6565;BME280;3316;44.118;27.258;2023-06-24T11:41:51;100951.97;;;36.00;30.60
6565;BME280;3316;44.118;27.258;2023-06-24T11:44:21;100944.75;;;36.07;30.21
6565;BME280;3316;44.118;27.258;2023-06-24T11:46:48;100945.59;;;36.31;31.13
6565;BME280;3316;44.118;27.258;2023-06-24T11:49:14;100919.41;;;36.13;31.04
6565;BME280;3316;44.118;27.258;2023-06-24T11:51:47;100926.81;;;35.96;30.27
6565;BME280;3316;44.118;27.258;2023-06-24T11:54:14;100926.75;;;35.80;30.27
6565;BME280;3316;44.118;27.258;2023-06-24T11:56:42;100937.91;;;35.78;30.44
6565;BME280;3316;44.118;27.258;2023-06-24T11:59:18;100937.41;;;35.99;30.49
6565;BME280;3316;44.118;27.258;2023-06-24T12:01:44;100910.84;;;35.83;30.59
6565;BME280;3316;44.118;27.258;2023-06-24T12:04:11;100939.28;;;35.91;30.30
6565;BME280;3316;44.118;27.258;2023-06-24T12:06:40;100902.97;;;35.72;30.28
6565;BME280;3316;44.118;27.258;2023-06-24T12:09:06;100902.84;;;35.98;29.25
6565;BME280;3316;44.118;27.258;2023-06-24T12:11:31;100915.78;;;36.36;29.79
6565;BME280;3316;44.118;27.258;2023-06-24T12:13:56;100902.00;;;36.69;29.24
6565;BME280;3316;44.118;27.258;2023-06-24T12:16:22;100922.69;;;36.79;28.63
6565;BME280;3316;44.118;27.258;2023-06-24T12:18:48;100919.59;;;36.11;29.33
6565;BME280;3316;44.118;27.258;2023-06-24T12:21:13;100911.72;;;36.16;29.50
6565;BME280;3316;44.118;27.258;2023-06-24T12:23:39;100924.06;;;35.96;28.48
6565;BME280;3316;44.118;27.258;2023-06-24T12:26:04;100910.84;;;35.83;28.58
6565;BME280;3316;44.118;27.258;2023-06-24T12:28:30;100902.81;;;35.90;29.25
6565;BME280;3316;44.118;27.258;2023-06-24T12:30:55;100897.50;;;35.64;28.99
6565;BME280;3316;44.118;27.258;2023-06-24T12:33:20;100899.03;;;35.59;28.82
6565;BME280;3316;44.118;27.258;2023-06-24T12:35:48;100901.09;;;35.81;28.58
6565;BME280;3316;44.118;27.258;2023-06-24T12:38:13;100897.16;;;35.83;27.90
6565;BME280;3316;44.118;27.258;2023-06-24T12:40:39;100892.88;;;35.97;28.15
6565;BME280;3316;44.118;27.258;2023-06-24T12:43:04;100880.56;;;35.61;28.51
6565;BME280;3316;44.118;27.258;2023-06-24T12:45:30;100889.94;;;35.50;28.66
6565;BME280;3316;44.118;27.258;2023-06-24T12:47:56;100883.13;;;35.78;28.54
6565;BME280;3316;44.118;27.258;2023-06-24T12:50:21;100867.75;;;35.61;27.83
6565;BME280;3316;44.118;27.258;2023-06-24T12:52:47;100880.56;;;35.77;28.16
6565;BME280;3316;44.118;27.258;2023-06-24T12:55:12;100875.09;;;35.85;28.03
6565;BME280;3316;44.118;27.258;2023-06-24T12:57:38;100869.75;;;35.75;27.71
6565;BME280;3316;44.118;27.258;2023-06-24T13:00:07;100871.31;;;35.78;28.04
6565;BME280;3316;44.118;27.258;2023-06-24T13:02:33;100875.25;;;35.92;27.51
6565;BME280;3316;44.118;27.258;2023-06-24T13:04:59;100860.88;;;35.98;27.51
6565;BME280;3316;44.118;27.258;2023-06-24T13:07:25;100863.28;;;35.93;27.26
6565;BME280;3316;44.118;27.258;2023-06-24T13:09:50;100864.47;;;35.82;28.20
6565;BME280;3316;44.118;27.258;2023-06-24T13:12:15;100861.38;;;36.01;27.96
6565;BME280;3316;44.118;27.258;2023-06-24T13:14:41;100861.03;;;36.20;27.29
6565;BME280;3316;44.118;27.258;2023-06-24T13:17:06;100864.25;;;36.24;27.25
6565;BME280;3316;44.118;27.258;2023-06-24T13:19:32;100860.56;;;36.01;27.21
6565;BME280;3316;44.118;27.258;2023-06-24T13:21:58;100856.25;;;36.06;27.54
6565;BME280;3316;44.118;27.258;2023-06-24T13:24:24;100853.84;;;36.11;26.45